createdAt,value
2019-03-31T00:01:44.829Z,84.00
2019-03-31T00:04:13.714Z,85.70
2019-03-31T00:06:41.824Z,85.80
2019-03-31T00:09:09.863Z,86.20
2019-03-31T00:11:38.032Z,84.60
2019-03-31T00:14:06.075Z,84.70
2019-03-31T00:16:34.903Z,86.40
2019-03-31T00:19:03.052Z,86.40
2019-03-31T00:21:31.109Z,85.00
2019-03-31T00:23:59.159Z,84.90
2019-03-31T00:26:27.184Z,85.20
2019-03-31T00:28:55.233Z,84.30
2019-03-31T00:31:23.289Z,83.90
2019-03-31T00:33:51.355Z,84.10
2019-03-31T00:36:20.180Z,84.50
2019-03-31T00:38:48.215Z,84.50
2019-03-31T00:41:17.024Z,85.80
2019-03-31T00:43:45.070Z,85.90
2019-03-31T00:46:13.982Z,85.40
2019-03-31T00:48:42.036Z,85.40
2019-03-31T00:51:10.866Z,86.00
2019-03-31T00:53:38.875Z,85.30
2019-03-31T00:56:07.713Z,84.90
2019-03-31T00:58:35.753Z,84.90
2019-03-31T01:01:18.692Z,84.90
2019-03-31T01:03:46.737Z,86.50
2019-03-31T01:06:14.840Z,87.20
2019-03-31T01:08:42.855Z,87.80
2019-03-31T01:11:11.685Z,88.40
2019-03-31T01:13:39.782Z,87.60
2019-03-31T01:16:07.787Z,88.40
2019-03-31T01:18:36.600Z,87.40
2019-03-31T01:21:04.691Z,87.30
2019-03-31T01:23:32.739Z,87.80
2019-03-31T01:26:00.796Z,87.70
2019-03-31T01:28:29.621Z,86.60
2019-03-31T01:30:57.676Z,86.60
2019-03-31T01:33:25.951Z,86.70
2019-03-31T01:35:54.004Z,88.00
2019-03-31T01:38:22.822Z,88.00
2019-03-31T01:40:50.871Z,88.00
2019-03-31T01:43:18.922Z,88.60
2019-03-31T01:45:47.743Z,89.80
2019-03-31T01:48:15.783Z,89.70
2019-03-31T01:50:44.619Z,90.00
2019-03-31T01:53:12.655Z,90.00
2019-03-31T01:55:40.712Z,89.50
2019-03-31T01:58:09.535Z,88.60
2019-03-31T02:00:39.241Z,88.90
2019-03-31T02:03:07.287Z,88.80
2019-03-31T02:05:35.318Z,88.00
2019-03-31T02:08:03.453Z,87.90
2019-03-31T02:10:31.505Z,87.80
2019-03-31T02:12:59.560Z,87.60
2019-03-31T02:15:28.379Z,87.30
2019-03-31T02:17:56.426Z,87.30
2019-03-31T02:20:25.263Z,87.70
2019-03-31T02:22:53.336Z,87.70
2019-03-31T02:25:21.375Z,88.30
2019-03-31T02:27:49.445Z,88.60
2019-03-31T02:30:17.527Z,88.40
2019-03-31T02:32:46.409Z,86.70
2019-03-31T02:35:14.450Z,86.80
2019-03-31T02:37:43.271Z,86.60
2019-03-31T02:40:11.317Z,86.50
2019-03-31T02:42:39.420Z,86.40
2019-03-31T02:45:07.482Z,86.50
2019-03-31T02:47:35.532Z,86.90
2019-03-31T02:50:03.631Z,88.20
2019-03-31T02:52:31.691Z,88.50
2019-03-31T02:54:59.746Z,88.70
2019-03-31T02:57:27.807Z,89.30
2019-03-31T02:59:57.445Z,90.60
2019-03-31T03:02:40.543Z,90.60
2019-03-31T03:04:53.545Z,90.50
2019-03-31T03:07:22.469Z,90.30
2019-03-31T03:09:51.865Z,90.50
2019-03-31T03:12:19.920Z,90.60
2019-03-31T03:14:48.741Z,91.40
2019-03-31T03:17:16.796Z,91.30
2019-03-31T03:19:44.880Z,91.50
2019-03-31T03:22:12.949Z,91.60
2019-03-31T03:24:40.999Z,91.80
2019-03-31T03:27:09.792Z,91.30
2019-03-31T03:29:37.875Z,91.70
2019-03-31T03:32:06.725Z,90.80
2019-03-31T03:34:34.826Z,91.00
2019-03-31T03:37:02.963Z,91.80
2019-03-31T03:39:30.928Z,91.50
2019-03-31T03:41:59.859Z,90.80
2019-03-31T03:44:28.652Z,90.30
2019-03-31T03:46:56.704Z,90.30
2019-03-31T03:49:24.795Z,90.50
2019-03-31T03:51:52.868Z,91.20
2019-03-31T03:54:20.909Z,91.40
2019-03-31T03:56:49.007Z,91.60
2019-03-31T03:59:17.049Z,91.50
2019-03-31T04:01:45.868Z,92.30
2019-03-31T04:04:13.916Z,92.30
2019-03-31T04:06:43.125Z,92.90
2019-03-31T04:09:11.176Z,92.90
2019-03-31T04:11:39.217Z,93.10
2019-03-31T04:14:07.272Z,93.50
2019-03-31T04:16:35.313Z,93.40
2019-03-31T04:19:03.377Z,93.20
2019-03-31T04:21:31.457Z,93.10
2019-03-31T04:23:59.530Z,93.10
2019-03-31T04:26:27.580Z,93.60
2019-03-31T04:28:56.379Z,94.30
2019-03-31T04:31:24.435Z,94.30
2019-03-31T04:33:53.391Z,93.90
2019-03-31T04:36:21.281Z,93.90
2019-03-31T04:38:49.367Z,94.20
2019-03-31T04:41:17.436Z,94.30
2019-03-31T04:43:46.222Z,94.40
2019-03-31T04:46:14.270Z,94.80
2019-03-31T04:48:43.087Z,94.80
2019-03-31T04:51:11.134Z,94.80
2019-03-31T04:53:39.951Z,94.30
2019-03-31T04:56:08.010Z,94.20
2019-03-31T04:58:36.080Z,94.20
2019-03-31T05:01:04.127Z,94.90
2019-03-31T05:03:32.947Z,95.30
2019-03-31T05:06:01.020Z,95.30
2019-03-31T05:08:29.083Z,94.80
2019-03-31T05:10:57.887Z,95.20
2019-03-31T05:13:25.941Z,95.20
2019-03-31T05:15:54.011Z,95.30
2019-03-31T05:18:22.077Z,95.50
2019-03-31T05:20:50.862Z,95.60
2019-03-31T05:23:18.907Z,95.60
2019-03-31T05:25:47.715Z,95.30
2019-03-31T05:28:15.771Z,95.30
2019-03-31T05:30:44.588Z,95.50
2019-03-31T05:33:12.648Z,95.50
2019-03-31T05:35:40.699Z,94.90
2019-03-31T05:38:09.515Z,94.20
2019-03-31T05:40:37.559Z,94.20
2019-03-31T05:43:06.379Z,93.40
2019-03-31T05:45:34.424Z,93.30
2019-03-31T05:48:03.248Z,85.20
2019-03-31T05:50:31.307Z,85.20
2019-03-31T05:52:59.372Z,79.00
2019-03-31T05:55:27.412Z,74.20
2019-03-31T05:57:56.238Z,65.40
2019-03-31T06:00:29.216Z,65.40
2019-03-31T06:02:57.388Z,59.50
2019-03-31T06:05:25.460Z,57.10
2019-03-31T06:07:54.258Z,54.30
2019-03-31T06:10:22.312Z,54.30
2019-03-31T06:12:51.206Z,52.50
2019-03-31T06:15:19.248Z,52.50
2019-03-31T06:17:47.300Z,52.10
2019-03-31T06:20:15.355Z,49.60
2019-03-31T06:22:43.496Z,49.40
2019-03-31T06:25:11.556Z,48.40
2019-03-31T06:27:39.627Z,46.40
2019-03-31T06:30:07.701Z,47.60
2019-03-31T06:32:35.759Z,50.10
2019-03-31T06:35:04.569Z,49.90
2019-03-31T06:37:32.623Z,49.70
2019-03-31T06:40:00.703Z,50.20
2019-03-31T06:42:28.759Z,51.50
2019-03-31T06:44:56.831Z,51.50
2019-03-31T06:47:24.883Z,51.10
2019-03-31T06:49:53.724Z,51.30
2019-03-31T06:52:21.767Z,51.30
2019-03-31T06:54:49.946Z,52.30
2019-03-31T06:57:18.001Z,52.20
2019-03-31T06:59:46.069Z,52.60
2019-03-31T07:02:14.123Z,53.90
2019-03-31T07:04:42.970Z,53.90
2019-03-31T07:07:11.117Z,53.90
2019-03-31T07:09:39.207Z,54.20
2019-03-31T07:12:07.979Z,52.60
2019-03-31T07:14:36.020Z,52.60
2019-03-31T07:17:04.119Z,53.00
2019-03-31T07:19:32.292Z,53.70
2019-03-31T07:22:00.452Z,56.80
2019-03-31T07:24:28.627Z,53.80
2019-03-31T07:26:57.504Z,51.70
2019-03-31T07:29:25.595Z,51.70
2019-03-31T07:31:53.652Z,51.00
2019-03-31T07:34:21.746Z,50.50
2019-03-31T07:36:49.795Z,51.60
2019-03-31T07:39:18.186Z,50.90
2019-03-31T07:41:46.182Z,52.10
2019-03-31T07:44:15.484Z,50.20
2019-03-31T07:46:42.087Z,49.90
2019-03-31T07:49:10.159Z,49.60
2019-03-31T07:51:38.211Z,49.80
2019-03-31T07:54:07.424Z,50.10
2019-03-31T07:56:35.481Z,50.10
2019-03-31T07:59:04.383Z,48.40
2019-03-31T08:01:32.436Z,48.40
2019-03-31T08:04:00.491Z,48.70
2019-03-31T08:06:29.311Z,46.30
2019-03-31T08:08:57.498Z,46.30
2019-03-31T08:11:25.512Z,47.50
2019-03-31T08:13:55.409Z,47.10
2019-03-31T08:16:22.613Z,47.10
2019-03-31T08:18:50.688Z,43.60
2019-03-31T08:21:18.770Z,42.60
2019-03-31T08:23:47.548Z,43.10
2019-03-31T08:26:15.627Z,43.20
2019-03-31T08:28:43.883Z,41.90
2019-03-31T08:31:11.973Z,41.90
2019-03-31T08:33:40.171Z,42.40
2019-03-31T08:36:08.328Z,41.90
2019-03-31T08:38:36.474Z,40.70
2019-03-31T08:41:05.509Z,39.20
2019-03-31T08:43:34.347Z,40.80
2019-03-31T08:46:12.312Z,40.80
2019-03-31T08:48:40.443Z,38.60
2019-03-31T08:51:08.663Z,38.80
2019-03-31T08:53:36.884Z,38.70
2019-03-31T08:56:08.479Z,39.70
2019-03-31T08:58:33.323Z,39.30
2019-03-31T09:01:01.391Z,36.00
2019-03-31T09:03:29.660Z,35.40
2019-03-31T09:06:02.214Z,36.80
2019-03-31T09:08:26.012Z,36.30
2019-03-31T09:10:54.069Z,36.40
2019-03-31T09:13:22.988Z,36.90
2019-03-31T09:15:51.035Z,36.90
2019-03-31T09:18:19.125Z,37.30
2019-03-31T09:20:47.179Z,35.80
2019-03-31T09:23:15.284Z,35.50
2019-03-31T09:25:43.444Z,37.00
2019-03-31T09:28:11.498Z,37.60
2019-03-31T09:30:40.393Z,34.70
2019-03-31T09:33:08.448Z,34.70
2019-03-31T09:35:36.580Z,33.80
2019-03-31T09:38:04.624Z,33.10
2019-03-31T09:40:32.696Z,31.80
2019-03-31T09:43:00.900Z,30.60
2019-03-31T09:45:28.940Z,30.10
2019-03-31T09:47:56.987Z,30.40
2019-03-31T09:50:25.733Z,30.50
2019-03-31T09:52:53.847Z,29.90
2019-03-31T09:55:23.216Z,30.00
2019-03-31T09:57:50.715Z,30.00
2019-03-31T10:00:39.612Z,31.20
2019-03-31T10:03:07.662Z,30.70
2019-03-31T10:05:35.708Z,30.70
2019-03-31T10:08:03.766Z,30.50
2019-03-31T10:10:31.838Z,27.00
2019-03-31T10:12:59.987Z,28.30
2019-03-31T10:15:28.816Z,30.20
2019-03-31T10:17:56.867Z,30.20
2019-03-31T10:20:25.004Z,30.00
2019-03-31T10:22:53.131Z,32.60
2019-03-31T10:25:21.207Z,30.20
2019-03-31T10:27:49.364Z,27.70
2019-03-31T10:33:14.788Z,29.90
2019-03-31T10:35:42.967Z,29.90
2019-03-31T10:38:11.031Z,28.60
2019-03-31T10:40:39.213Z,29.20
2019-03-31T10:43:07.285Z,29.10
2019-03-31T10:45:35.339Z,28.80
2019-03-31T10:48:04.139Z,28.30
2019-03-31T10:50:32.933Z,27.50
2019-03-31T10:53:00.993Z,27.40
2019-03-31T10:55:29.059Z,22.00
2019-03-31T10:57:57.228Z,23.90
2019-03-31T11:00:31.303Z,27.10
2019-03-31T11:03:00.127Z,25.40
2019-03-31T11:05:28.207Z,24.90
2019-03-31T11:07:56.256Z,27.00
2019-03-31T11:10:24.331Z,26.90
2019-03-31T11:12:52.386Z,25.10
2019-03-31T11:15:20.428Z,26.10
2019-03-31T11:17:49.980Z,26.40
2019-03-31T11:20:18.045Z,26.40
2019-03-31T11:22:47.554Z,25.20
2019-03-31T11:25:21.322Z,24.60
2019-03-31T11:27:44.043Z,25.70
2019-03-31T11:30:11.771Z,25.30
2019-03-31T11:32:39.917Z,26.00
2019-03-31T11:35:08.844Z,26.80
2019-03-31T11:37:36.972Z,26.80
2019-03-31T11:40:05.182Z,27.30
2019-03-31T11:42:33.363Z,27.00
2019-03-31T11:45:01.531Z,25.80
2019-03-31T11:47:29.696Z,26.90
2019-03-31T11:49:57.767Z,26.80
2019-03-31T11:52:25.833Z,26.10
2019-03-31T11:54:53.879Z,26.20
2019-03-31T11:57:22.892Z,26.60
2019-03-31T11:59:50.974Z,26.60
2019-03-31T12:02:27.057Z,27.50
2019-03-31T12:04:48.107Z,27.40
2019-03-31T12:07:27.186Z,27.30
2019-03-31T12:09:45.103Z,27.20
2019-03-31T12:12:13.928Z,25.00
2019-03-31T12:14:43.608Z,25.80
2019-03-31T12:17:11.665Z,25.80
2019-03-31T12:19:39.715Z,26.40
2019-03-31T12:22:07.792Z,26.30
2019-03-31T12:24:35.907Z,25.30
2019-03-31T12:27:03.973Z,27.00
2019-03-31T12:29:32.024Z,24.90
2019-03-31T12:32:00.067Z,24.80
2019-03-31T12:34:28.129Z,26.80
2019-03-31T12:36:57.047Z,26.90
2019-03-31T12:39:25.143Z,26.90
2019-03-31T12:41:53.328Z,26.00
2019-03-31T12:44:24.756Z,27.50
2019-03-31T12:46:49.435Z,25.30
2019-03-31T12:49:17.673Z,25.60
2019-03-31T12:51:46.608Z,25.30
2019-03-31T12:54:15.485Z,25.90
2019-03-31T12:56:43.568Z,25.80
2019-03-31T12:59:11.623Z,25.40
2019-03-31T13:01:39.684Z,25.10
2019-03-31T13:04:07.776Z,26.40
2019-03-31T13:06:35.835Z,25.70
2019-03-31T13:09:03.889Z,26.40
2019-03-31T13:11:31.947Z,26.70
2019-03-31T13:14:00.783Z,26.00
2019-03-31T13:16:28.951Z,26.00
2019-03-31T13:18:56.992Z,25.30
2019-03-31T13:21:25.060Z,25.50
2019-03-31T13:23:53.880Z,26.40
2019-03-31T13:26:22.069Z,26.40
2019-03-31T13:28:50.097Z,27.60
2019-03-31T13:31:18.198Z,26.90
2019-03-31T13:33:46.260Z,26.60
2019-03-31T13:36:15.992Z,26.30
2019-03-31T13:38:44.012Z,26.20
2019-03-31T13:41:12.844Z,26.10
2019-03-31T13:43:41.068Z,26.00
2019-03-31T13:46:09.045Z,26.70
2019-03-31T13:48:37.894Z,25.80
2019-03-31T13:51:06.031Z,25.80
2019-03-31T13:53:34.279Z,25.20
2019-03-31T13:56:03.088Z,25.20
2019-03-31T13:58:33.545Z,25.10
2019-03-31T14:00:59.231Z,26.90
2019-03-31T14:03:27.345Z,27.10
2019-03-31T14:05:55.475Z,27.30
2019-03-31T14:08:26.062Z,25.30
2019-03-31T14:10:51.543Z,25.90
2019-03-31T14:13:19.691Z,26.40
2019-03-31T14:15:47.762Z,25.90
2019-03-31T14:18:15.835Z,25.90
2019-03-31T14:20:43.876Z,26.70
2019-03-31T14:23:12.779Z,26.10
2019-03-31T14:25:40.855Z,26.10
2019-03-31T14:28:09.116Z,25.90
2019-03-31T14:30:38.033Z,25.30
2019-03-31T14:33:06.079Z,25.30
2019-03-31T14:35:34.172Z,24.80
2019-03-31T14:38:02.440Z,24.30
2019-03-31T14:40:30.504Z,24.50
2019-03-31T14:42:59.507Z,24.90
2019-03-31T14:45:28.392Z,24.90
2019-03-31T14:47:56.457Z,24.30
2019-03-31T14:50:29.503Z,25.00
2019-03-31T14:52:58.665Z,25.90
2019-03-31T14:55:26.923Z,25.90
2019-03-31T14:57:55.057Z,25.90
2019-03-31T15:00:23.870Z,26.00
2019-03-31T15:02:51.889Z,25.90
2019-03-31T15:05:20.020Z,25.00
2019-03-31T15:07:48.116Z,24.40
2019-03-31T15:10:16.168Z,24.70
2019-03-31T15:12:44.544Z,25.60
2019-03-31T15:15:13.335Z,25.10
2019-03-31T15:17:41.403Z,25.00
2019-03-31T15:20:10.209Z,25.40
2019-03-31T15:22:38.467Z,25.70
2019-03-31T15:25:06.600Z,26.00
2019-03-31T15:27:35.534Z,25.30
2019-03-31T15:30:04.300Z,25.20
2019-03-31T15:32:32.476Z,25.10
2019-03-31T15:35:00.601Z,25.20
2019-03-31T15:37:29.449Z,25.40
2019-03-31T15:39:57.495Z,25.40
2019-03-31T15:42:25.561Z,25.50
2019-03-31T15:44:54.368Z,25.80
2019-03-31T15:47:22.415Z,25.80
2019-03-31T15:49:50.519Z,25.80
2019-03-31T15:52:18.591Z,26.10
2019-03-31T15:54:46.646Z,26.10
2019-03-31T15:57:14.766Z,25.90
2019-03-31T15:59:49.460Z,25.50
2019-03-31T16:02:17.503Z,26.10
2019-03-31T16:04:46.493Z,25.90
2019-03-31T16:07:15.295Z,26.60
2019-03-31T16:09:43.353Z,26.50
2019-03-31T16:12:12.165Z,26.20
2019-03-31T16:14:40.225Z,26.20
2019-03-31T16:17:09.138Z,25.40
2019-03-31T16:19:37.195Z,25.40
2019-03-31T16:22:05.260Z,25.80
2019-03-31T16:24:44.752Z,26.30
2019-03-31T16:27:12.788Z,26.80
2019-03-31T16:29:40.848Z,25.80
2019-03-31T16:32:08.918Z,26.30
2019-03-31T16:34:36.989Z,26.50
2019-03-31T16:37:05.027Z,26.60
2019-03-31T16:39:37.768Z,26.00
2019-03-31T16:42:01.981Z,25.90
2019-03-31T16:44:30.892Z,26.70
2019-03-31T16:46:58.984Z,26.60
2019-03-31T16:49:27.069Z,26.90
2019-03-31T16:51:55.115Z,26.00
2019-03-31T16:54:23.405Z,26.50
2019-03-31T16:56:51.487Z,26.80
2019-03-31T16:59:19.536Z,27.70
2019-03-31T17:01:47.555Z,27.50
2019-03-31T17:04:15.704Z,28.20
2019-03-31T17:06:43.816Z,28.30
2019-03-31T17:09:11.799Z,28.00
2019-03-31T17:11:39.840Z,28.10
2019-03-31T17:14:07.864Z,27.80
2019-03-31T17:19:33.483Z,29.00
2019-03-31T17:22:01.516Z,29.00
2019-03-31T17:24:30.365Z,30.00
2019-03-31T17:26:58.511Z,29.90
2019-03-31T17:29:29.135Z,30.20
2019-03-31T17:31:57.212Z,30.40
2019-03-31T17:34:25.331Z,31.00
2019-03-31T17:36:53.452Z,31.10
2019-03-31T17:39:21.527Z,31.90
2019-03-31T17:41:49.577Z,31.80
2019-03-31T17:44:17.661Z,32.70
2019-03-31T17:46:45.702Z,32.30
2019-03-31T17:49:14.577Z,31.80
2019-03-31T17:51:42.587Z,32.50
2019-03-31T17:54:10.650Z,32.20
2019-03-31T17:56:39.451Z,32.40
2019-03-31T17:59:08.976Z,33.70
2019-03-31T18:01:36.397Z,33.70
2019-03-31T18:04:05.215Z,32.90
2019-03-31T18:06:33.240Z,32.80
2019-03-31T18:09:02.163Z,34.10
2019-03-31T18:11:30.228Z,34.10
2019-03-31T18:13:58.291Z,34.20
2019-03-31T18:16:26.364Z,34.20
2019-03-31T18:18:55.159Z,34.50
2019-03-31T18:21:23.223Z,34.30
2019-03-31T18:23:51.294Z,34.80
2019-03-31T18:26:19.355Z,35.20
2019-03-31T18:28:47.398Z,35.40
2019-03-31T18:31:15.517Z,35.70
2019-03-31T18:33:43.582Z,36.40
2019-03-31T18:36:12.411Z,36.90
2019-03-31T18:38:40.448Z,36.90
2019-03-31T18:41:08.608Z,37.00
2019-03-31T18:43:50.238Z,38.00
2019-03-31T18:46:04.847Z,37.40
2019-03-31T18:48:32.899Z,37.50
2019-03-31T18:51:01.715Z,38.20
2019-03-31T18:53:46.516Z,38.20
2019-03-31T18:56:16.091Z,38.70
2019-03-31T18:58:59.106Z,38.10
2019-03-31T19:01:32.868Z,38.30
2019-03-31T19:07:05.583Z,39.30
2019-03-31T19:09:39.087Z,39.60
2019-03-31T19:12:12.824Z,39.60
2019-03-31T19:14:41.320Z,40.00
2019-03-31T19:17:15.175Z,40.40
2019-03-31T19:20:00.951Z,40.30
2019-03-31T19:22:30.278Z,40.80
2019-03-31T19:25:10.075Z,40.80
2019-03-31T19:27:53.931Z,41.30
2019-03-31T19:30:38.580Z,41.80
2019-03-31T19:33:09.218Z,41.70
2019-03-31T19:35:37.244Z,41.90
2019-03-31T19:38:08.264Z,42.00
2019-03-31T19:40:41.731Z,42.10
2019-03-31T19:43:12.014Z,42.70
2019-03-31T19:48:41.476Z,43.30
2019-03-31T19:51:15.960Z,44.30
2019-03-31T19:53:48.609Z,44.30
2019-03-31T19:56:17.589Z,44.60
2019-03-31T19:59:03.501Z,44.30
2019-03-31T20:01:32.142Z,44.40
2019-03-31T20:04:13.667Z,45.70
2019-03-31T20:06:47.376Z,45.70
2019-03-31T20:09:20.416Z,44.90
2019-03-31T20:11:53.112Z,45.20
2019-03-31T20:14:38.562Z,46.50
2019-03-31T20:17:08.079Z,46.50
2019-03-31T20:19:39.670Z,46.40
2019-03-31T20:22:11.664Z,48.70
2019-03-31T20:24:51.443Z,47.60
2019-03-31T20:27:22.480Z,47.70
2019-03-31T20:29:56.889Z,46.70
2019-03-31T20:32:28.555Z,46.60
2019-03-31T20:34:57.527Z,46.60
2019-03-31T20:37:32.194Z,46.90
2019-03-31T20:40:12.691Z,46.10
2019-03-31T20:42:44.359Z,46.00
2019-03-31T20:45:12.502Z,45.50
2019-03-31T20:47:40.556Z,44.90
2019-03-31T20:50:08.640Z,45.00
2019-03-31T20:52:36.703Z,44.80
2019-03-31T20:55:15.678Z,44.60
2019-03-31T20:57:32.823Z,45.10
2019-03-31T21:00:00.905Z,45.40
2019-03-31T21:02:29.787Z,46.30
2019-03-31T21:04:57.871Z,46.20
2019-03-31T21:07:26.656Z,49.10
2019-03-31T21:09:54.725Z,49.10
2019-03-31T21:12:22.780Z,50.00
2019-03-31T21:14:50.859Z,50.60
2019-03-31T21:17:19.655Z,51.40
2019-03-31T21:19:47.724Z,51.30
2019-03-31T21:22:16.524Z,51.80
2019-03-31T21:24:44.607Z,51.80
2019-03-31T21:27:12.727Z,52.40
2019-03-31T21:29:41.576Z,53.80
2019-03-31T21:32:09.875Z,53.80
2019-03-31T21:34:38.699Z,54.70
2019-03-31T21:37:06.751Z,54.70
2019-03-31T21:39:34.847Z,54.70
2019-03-31T21:42:02.927Z,55.00
2019-03-31T21:44:30.988Z,55.40
2019-03-31T21:46:59.061Z,55.60
2019-03-31T21:49:27.104Z,56.40
2019-03-31T21:51:55.182Z,57.10
2019-03-31T21:54:23.262Z,57.30
2019-03-31T21:56:51.335Z,57.80
2019-03-31T21:59:19.395Z,58.80
2019-03-31T22:01:47.443Z,59.60
2019-03-31T22:04:16.281Z,60.90
2019-03-31T22:06:44.439Z,60.90
2019-03-31T22:09:12.502Z,62.50
2019-03-31T22:11:41.399Z,63.80
2019-03-31T22:14:10.620Z,63.50
2019-03-31T22:16:37.481Z,64.50
2019-03-31T22:19:05.536Z,65.40
2019-03-31T22:21:33.568Z,66.10
2019-03-31T22:24:01.618Z,66.60
2019-03-31T22:26:30.448Z,67.00
2019-03-31T22:28:58.490Z,67.00
2019-03-31T22:31:26.586Z,67.30
2019-03-31T22:33:54.648Z,68.40
2019-03-31T22:36:22.709Z,69.30
2019-03-31T22:38:50.796Z,69.80
2019-03-31T22:41:18.882Z,70.80
2019-03-31T22:43:46.903Z,71.10
2019-03-31T22:46:15.918Z,71.70
2019-03-31T22:48:44.809Z,72.80
2019-03-31T22:51:12.873Z,72.80
2019-03-31T22:53:41.747Z,73.90
2019-03-31T22:56:10.676Z,74.60
2019-03-31T22:58:38.771Z,74.70
2019-03-31T23:01:08.344Z,76.30
2019-03-31T23:03:36.387Z,76.30
2019-03-31T23:06:04.459Z,76.80
2019-03-31T23:08:32.527Z,76.70
2019-03-31T23:11:01.359Z,77.60
2019-03-31T23:13:29.512Z,77.60
2019-03-31T23:15:57.700Z,78.70
2019-03-31T23:18:25.769Z,79.80
2019-03-31T23:20:53.823Z,80.50
2019-03-31T23:23:21.871Z,81.20
2019-03-31T23:25:49.926Z,81.90
2019-03-31T23:28:18.745Z,83.00
2019-03-31T23:30:47.526Z,83.60
2019-03-31T23:33:15.594Z,83.50
2019-03-31T23:35:43.622Z,83.30
2019-03-31T23:38:11.753Z,84.20
2019-03-31T23:40:39.836Z,84.10
2019-03-31T23:43:07.997Z,84.80
2019-03-31T23:45:36.063Z,85.20
2019-03-31T23:48:04.141Z,85.20
2019-03-31T23:50:32.183Z,85.80
2019-03-31T23:53:01.023Z,87.00
2019-03-31T23:55:29.076Z,87.00
2019-03-31T23:57:57.233Z,87.50
